עמוד ראשי
METAR-TAF:

METAR-TAF

שדות תעופה :

Chinandega, ניקרגואה

קו רוחב: 12-38N, קו אורך: 087-08W, גובה: 53מטר

תצפית מזג אוויר נוכחית

הדו"ח נערך לפני 43דקות, בשעה 21:00 UTC
רוח 4קשר מכיוון מזרח
טמפרטורת 33 צלסיוס
לחות 56%
לחץ 1010 hPa
ראות 10 קילומטר או יותר
מעט עננים בגובה 2500רגל , קומולוס מיגדלי.
עננים פזורים בגובה 28000רגל

METAR: MNCH 252100Z 09004KT 9999 FEW025TCU SCT280 33/23 Q1010 TCU/N/NE

זמן: 15:43 (21:43 UTC)


TAF: חסר

תצפיות ותחזיות מזג אוויר לגבי יותר מ- 4,000 שדות תעופה ברחבי העולם. דוחות METAR ו- TAF.

התחנות הזמינות מסומנות בנקודות צהובות ואדומות על גבי המפה.

העבר את העכבר לנקודה הצבעונית על מנת לראות את שם התחנה.

לאחר מכן, לחץ כדי לראות את תוכן ואת תחזיות מזג האוויר.

כדי לשנות את המפה: לחץ על הכפתורים הירוקים עם הפלוס השחור כדי להתקרב; על הכפתור הירוק עם המקף כדי להתרחק; או בחיצים הירוקים למפות סמוכות.


METAR-TAF: